sensor_id;sensor_type;location;lat;lon;timestamp;pressure;altitude;pressure_sealevel;temperature;humidity
3250;BME280;1637;42.020;23.992;2022-09-09T00:00:19;93191.13;;;15.29;100.00
3250;BME280;1637;42.020;23.992;2022-09-09T00:02:54;93192.25;;;15.31;100.00
3250;BME280;1637;42.020;23.992;2022-09-09T00:05:29;93197.97;;;14.97;100.00
3250;BME280;1637;42.020;23.992;2022-09-09T00:08:02;93189.41;;;14.66;100.00
3250;BME280;1637;42.020;23.992;2022-09-09T00:10:33;93187.31;;;14.74;100.00
3250;BME280;1637;42.020;23.992;2022-09-09T00:13:08;93178.50;;;14.54;100.00
3250;BME280;1637;42.020;23.992;2022-09-09T00:15:47;93183.38;;;14.59;100.00
3250;BME280;1637;42.020;23.992;2022-09-09T00:18:22;93178.97;;;14.68;100.00
3250;BME280;1637;42.020;23.992;2022-09-09T00:20:57;93186.19;;;14.91;100.00
3250;BME280;1637;42.020;23.992;2022-09-09T00:23:31;93185.13;;;15.05;100.00
3250;BME280;1637;42.020;23.992;2022-09-09T00:26:04;93190.44;;;15.08;100.00
3250;BME280;1637;42.020;23.992;2022-09-09T00:28:38;93193.13;;;15.08;100.00
3250;BME280;1637;42.020;23.992;2022-09-09T00:31:12;93186.44;;;14.97;100.00
3250;BME280;1637;42.020;23.992;2022-09-09T00:33:39;93170.22;;;14.81;100.00
3250;BME280;1637;42.020;23.992;2022-09-09T00:36:13;93190.56;;;14.85;100.00
3250;BME280;1637;42.020;23.992;2022-09-09T00:38:45;93187.88;;;14.65;100.00
3250;BME280;1637;42.020;23.992;2022-09-09T00:41:18;93193.81;;;14.57;100.00
3250;BME280;1637;42.020;23.992;2022-09-09T00:43:55;93189.50;;;14.39;100.00
3250;BME280;1637;42.020;23.992;2022-09-09T00:46:41;93191.00;;;14.44;100.00
3250;BME280;1637;42.020;23.992;2022-09-09T00:49:17;93181.03;;;14.61;100.00
3250;BME280;1637;42.020;23.992;2022-09-09T00:51:54;93182.38;;;14.53;100.00
3250;BME280;1637;42.020;23.992;2022-09-09T00:54:35;93171.81;;;14.38;100.00
3250;BME280;1637;42.020;23.992;2022-09-09T00:57:14;93200.53;;;14.68;100.00
3250;BME280;1637;42.020;23.992;2022-09-09T00:59:47;93191.22;;;14.53;100.00
3250;BME280;1637;42.020;23.992;2022-09-09T01:02:23;93186.78;;;14.63;100.00
3250;BME280;1637;42.020;23.992;2022-09-09T01:04:52;93190.44;;;14.72;100.00
3250;BME280;1637;42.020;23.992;2022-09-09T01:07:20;93186.47;;;14.77;100.00
3250;BME280;1637;42.020;23.992;2022-09-09T01:09:56;93187.47;;;14.67;100.00
3250;BME280;1637;42.020;23.992;2022-09-09T01:12:27;93178.50;;;14.54;100.00
3250;BME280;1637;42.020;23.992;2022-09-09T01:15:03;93183.69;;;14.44;100.00
3250;BME280;1637;42.020;23.992;2022-09-09T01:17:34;93188.00;;;14.78;100.00
3250;BME280;1637;42.020;23.992;2022-09-09T01:20:06;93184.81;;;14.83;100.00
3250;BME280;1637;42.020;23.992;2022-09-09T01:22:42;93184.94;;;14.76;100.00
3250;BME280;1637;42.020;23.992;2022-09-09T01:25:21;93189.06;;;14.44;100.00
3250;BME280;1637;42.020;23.992;2022-09-09T01:27:54;93186.03;;;14.42;100.00
3250;BME280;1637;42.020;23.992;2022-09-09T01:30:22;93168.16;;;14.09;100.00
3250;BME280;1637;42.020;23.992;2022-09-09T01:32:52;93174.91;;;14.40;100.00
3250;BME280;1637;42.020;23.992;2022-09-09T01:35:29;93170.88;;;14.09;100.00
3250;BME280;1637;42.020;23.992;2022-09-09T01:37:58;93135.84;;;13.89;100.00
3250;BME280;1637;42.020;23.992;2022-09-09T01:40:25;93176.97;;;13.90;100.00
3250;BME280;1637;42.020;23.992;2022-09-09T01:42:54;93164.72;;;14.08;100.00
3250;BME280;1637;42.020;23.992;2022-09-09T01:45:22;93179.13;;;14.18;100.00
3250;BME280;1637;42.020;23.992;2022-09-09T01:47:50;93172.28;;;14.14;100.00
3250;BME280;1637;42.020;23.992;2022-09-09T01:50:19;93171.03;;;13.98;100.00
3250;BME280;1637;42.020;23.992;2022-09-09T01:52:49;93162.75;;;13.89;100.00
3250;BME280;1637;42.020;23.992;2022-09-09T01:55:19;93167.25;;;13.96;100.00
3250;BME280;1637;42.020;23.992;2022-09-09T01:57:56;93168.03;;;14.36;100.00
3250;BME280;1637;42.020;23.992;2022-09-09T02:00:28;93166.09;;;14.36;100.00
3250;BME280;1637;42.020;23.992;2022-09-09T02:03:00;93176.41;;;14.41;100.00
3250;BME280;1637;42.020;23.992;2022-09-09T02:05:35;93167.25;;;13.96;100.00
3250;BME280;1637;42.020;23.992;2022-09-09T02:08:06;93166.72;;;14.04;100.00
3250;BME280;1637;42.020;23.992;2022-09-09T02:10:39;93169.59;;;14.14;100.00
3250;BME280;1637;42.020;23.992;2022-09-09T02:13:11;93190.53;;;14.06;100.00
3250;BME280;1637;42.020;23.992;2022-09-09T02:15:43;93162.44;;;14.07;100.00
3250;BME280;1637;42.020;23.992;2022-09-09T02:18:13;93162.25;;;13.94;100.00
3250;BME280;1637;42.020;23.992;2022-09-09T02:20:43;93153.75;;;13.76;100.00
3250;BME280;1637;42.020;23.992;2022-09-09T02:23:11;93165.78;;;13.71;100.00
3250;BME280;1637;42.020;23.992;2022-09-09T02:25:40;93169.03;;;13.59;100.00
3250;BME280;1637;42.020;23.992;2022-09-09T02:28:11;93166.59;;;13.45;100.00
3250;BME280;1637;42.020;23.992;2022-09-09T02:30:40;93052.06;;;12.70;100.00
3250;BME280;1637;42.020;23.992;2022-09-09T02:33:10;93168.81;;;13.50;100.00
3250;BME280;1637;42.020;23.992;2022-09-09T02:35:39;93166.88;;;13.51;100.00
3250;BME280;1637;42.020;23.992;2022-09-09T02:38:11;93185.22;;;13.32;100.00
3250;BME280;1637;42.020;23.992;2022-09-09T02:40:39;93171.53;;;13.23;100.00
3250;BME280;1637;42.020;23.992;2022-09-09T02:43:06;93174.06;;;13.34;100.00
3250;BME280;1637;42.020;23.992;2022-09-09T02:45:41;93164.75;;;13.12;100.00
3250;BME280;1637;42.020;23.992;2022-09-09T02:48:14;93169.72;;;13.40;100.00
3250;BME280;1637;42.020;23.992;2022-09-09T02:50:51;93167.56;;;13.55;100.00
3250;BME280;1637;42.020;23.992;2022-09-09T02:53:24;93164.25;;;13.70;100.00
3250;BME280;1637;42.020;23.992;2022-09-09T02:55:55;93163.50;;;13.47;100.00
3250;BME280;1637;42.020;23.992;2022-09-09T02:58:24;93155.75;;;12.98;100.00
3250;BME280;1637;42.020;23.992;2022-09-09T03:00:53;93150.53;;;12.88;100.00
3250;BME280;1637;42.020;23.992;2022-09-09T03:03:20;93156.25;;;12.90;100.00
3250;BME280;1637;42.020;23.992;2022-09-09T03:05:47;93160.13;;;13.12;100.00
3250;BME280;1637;42.020;23.992;2022-09-09T03:08:14;93162.91;;;13.08;100.00
3250;BME280;1637;42.020;23.992;2022-09-09T03:10:41;93161.03;;;13.05;100.00
3250;BME280;1637;42.020;23.992;2022-09-09T03:13:08;93167.81;;;13.14;100.00
3250;BME280;1637;42.020;23.992;2022-09-09T03:15:35;93162.66;;;12.99;100.00
3250;BME280;1637;42.020;23.992;2022-09-09T03:18:04;93160.13;;;13.16;100.00
3250;BME280;1637;42.020;23.992;2022-09-09T03:20:30;93167.28;;;13.49;100.00
3250;BME280;1637;42.020;23.992;2022-09-09T03:22:59;93147.56;;;13.56;100.00
3250;BME280;1637;42.020;23.992;2022-09-09T03:25:26;93149.50;;;13.55;100.00
3250;BME280;1637;42.020;23.992;2022-09-09T03:27:54;93164.66;;;13.46;100.00
3250;BME280;1637;42.020;23.992;2022-09-09T03:30:21;93163.06;;;13.25;100.00
3250;BME280;1637;42.020;23.992;2022-09-09T03:32:48;93153.88;;;12.95;100.00
3250;BME280;1637;42.020;23.992;2022-09-09T03:35:16;93159.97;;;12.69;100.00
3250;BME280;1637;42.020;23.992;2022-09-09T03:37:43;93165.19;;;12.83;100.00
3250;BME280;1637;42.020;23.992;2022-09-09T03:40:11;93162.19;;;12.78;100.00
3250;BME280;1637;42.020;23.992;2022-09-09T03:42:38;93157.97;;;13.03;100.00
3250;BME280;1637;42.020;23.992;2022-09-09T03:45:07;93163.81;;;13.25;100.00
3250;BME280;1637;42.020;23.992;2022-09-09T03:47:36;93136.41;;;13.07;100.00
3250;BME280;1637;42.020;23.992;2022-09-09T03:50:04;93160.25;;;13.32;100.00
3250;BME280;1637;42.020;23.992;2022-09-09T03:52:35;93161.31;;;13.38;100.00
3250;BME280;1637;42.020;23.992;2022-09-09T03:55:03;93163.00;;;13.28;100.00
3250;BME280;1637;42.020;23.992;2022-09-09T03:57:30;93155.41;;;13.23;100.00
3250;BME280;1637;42.020;23.992;2022-09-09T03:59:57;93150.78;;;13.47;100.00
3250;BME280;1637;42.020;23.992;2022-09-09T04:02:26;93155.63;;;13.56;100.00
3250;BME280;1637;42.020;23.992;2022-09-09T04:04:53;93152.78;;;13.43;100.00
3250;BME280;1637;42.020;23.992;2022-09-09T04:07:20;93159.03;;;13.09;100.00
3250;BME280;1637;42.020;23.992;2022-09-09T04:09:48;93157.94;;;12.80;100.00
3250;BME280;1637;42.020;23.992;2022-09-09T04:12:15;93158.28;;;13.09;100.00
3250;BME280;1637;42.020;23.992;2022-09-09T04:14:42;93158.72;;;13.31;100.00
3250;BME280;1637;42.020;23.992;2022-09-09T04:17:08;93166.06;;;13.97;100.00
3250;BME280;1637;42.020;23.992;2022-09-09T04:19:35;93166.84;;;14.17;100.00
3250;BME280;1637;42.020;23.992;2022-09-09T04:22:02;93171.22;;;14.11;100.00
3250;BME280;1637;42.020;23.992;2022-09-09T04:24:29;93174.38;;;14.26;100.00
3250;BME280;1637;42.020;23.992;2022-09-09T04:26:57;93180.16;;;14.48;97.59
3250;BME280;1637;42.020;23.992;2022-09-09T04:29:24;93175.44;;;14.71;97.08
3250;BME280;1637;42.020;23.992;2022-09-09T04:31:51;93170.81;;;15.24;93.81
3250;BME280;1637;42.020;23.992;2022-09-09T04:34:18;93168.19;;;15.86;89.75
3250;BME280;1637;42.020;23.992;2022-09-09T04:36:45;93167.03;;;16.15;86.78
3250;BME280;1637;42.020;23.992;2022-09-09T04:39:12;93166.69;;;16.42;84.49
3250;BME280;1637;42.020;23.992;2022-09-09T04:41:39;93184.03;;;16.87;83.97
3250;BME280;1637;42.020;23.992;2022-09-09T04:44:08;93181.69;;;16.60;84.10
3250;BME280;1637;42.020;23.992;2022-09-09T04:46:35;93173.66;;;16.27;84.65
3250;BME280;1637;42.020;23.992;2022-09-09T04:49:02;93181.50;;;16.67;84.04
3250;BME280;1637;42.020;23.992;2022-09-09T04:51:28;93227.69;;;17.14;81.20
3250;BME280;1637;42.020;23.992;2022-09-09T04:53:56;93107.84;;;16.88;79.68
3250;BME280;1637;42.020;23.992;2022-09-09T04:56:23;93183.25;;;17.88;77.64
3250;BME280;1637;42.020;23.992;2022-09-09T04:58:52;93169.63;;;18.13;76.05
3250;BME280;1637;42.020;23.992;2022-09-09T05:01:21;93192.78;;;18.61;74.44
3250;BME280;1637;42.020;23.992;2022-09-09T05:03:49;93191.72;;;18.80;73.52
3250;BME280;1637;42.020;23.992;2022-09-09T05:06:19;93188.13;;;19.45;71.33
3250;BME280;1637;42.020;23.992;2022-09-09T05:08:46;93181.03;;;19.17;71.57
3250;BME280;1637;42.020;23.992;2022-09-09T05:11:16;93178.88;;;19.03;72.16
3250;BME280;1637;42.020;23.992;2022-09-09T05:13:43;93175.50;;;18.68;73.69
3250;BME280;1637;42.020;23.992;2022-09-09T05:16:10;93177.66;;;19.04;72.85
3250;BME280;1637;42.020;23.992;2022-09-09T05:18:39;93170.91;;;19.08;72.77
3250;BME280;1637;42.020;23.992;2022-09-09T05:21:08;93178.25;;;18.77;75.30
3250;BME280;1637;42.020;23.992;2022-09-09T05:23:35;93182.53;;;19.49;72.96
3250;BME280;1637;42.020;23.992;2022-09-09T05:26:02;93204.09;;;19.74;71.62
3250;BME280;1637;42.020;23.992;2022-09-09T05:28:29;93183.84;;;19.75;72.84
3250;BME280;1637;42.020;23.992;2022-09-09T05:30:57;93185.16;;;20.29;69.95
3250;BME280;1637;42.020;23.992;2022-09-09T05:33:26;93180.63;;;20.44;68.98
3250;BME280;1637;42.020;23.992;2022-09-09T05:35:58;93167.94;;;20.50;69.42
3250;BME280;1637;42.020;23.992;2022-09-09T05:38:25;93177.88;;;21.41;66.35
3250;BME280;1637;42.020;23.992;2022-09-09T05:40:52;93183.06;;;21.72;65.36
3250;BME280;1637;42.020;23.992;2022-09-09T05:43:19;93163.25;;;22.43;62.89
3250;BME280;1637;42.020;23.992;2022-09-09T05:45:47;93152.28;;;19.69;71.96
3250;BME280;1637;42.020;23.992;2022-09-09T05:48:14;93146.00;;;21.33;67.30
3250;BME280;1637;42.020;23.992;2022-09-09T05:50:41;93162.69;;;21.07;67.45
3250;BME280;1637;42.020;23.992;2022-09-09T05:53:11;93166.16;;;21.26;67.41
3250;BME280;1637;42.020;23.992;2022-09-09T05:55:38;93162.41;;;21.56;66.67
3250;BME280;1637;42.020;23.992;2022-09-09T05:58:05;93153.47;;;22.13;65.23
3250;BME280;1637;42.020;23.992;2022-09-09T06:00:32;93152.25;;;22.67;63.33
3250;BME280;1637;42.020;23.992;2022-09-09T06:02:59;93164.28;;;23.14;61.86
3250;BME280;1637;42.020;23.992;2022-09-09T06:05:26;93163.16;;;23.20;61.38
3250;BME280;1637;42.020;23.992;2022-09-09T06:07:53;93157.47;;;23.09;62.53
3250;BME280;1637;42.020;23.992;2022-09-09T06:10:22;93150.59;;;23.43;61.28
3250;BME280;1637;42.020;23.992;2022-09-09T06:12:52;93146.16;;;23.46;61.03
3250;BME280;1637;42.020;23.992;2022-09-09T06:15:19;93128.94;;;23.25;61.54
3250;BME280;1637;42.020;23.992;2022-09-09T06:17:46;93157.91;;;24.02;59.95
3250;BME280;1637;42.020;23.992;2022-09-09T06:20:14;93164.69;;;24.06;60.18
3250;BME280;1637;42.020;23.992;2022-09-09T06:22:41;93162.78;;;24.32;58.48
3250;BME280;1637;42.020;23.992;2022-09-09T06:25:08;93169.44;;;24.11;58.72
3250;BME280;1637;42.020;23.992;2022-09-09T06:27:37;93164.38;;;23.84;60.10
3250;BME280;1637;42.020;23.992;2022-09-09T06:30:05;93164.06;;;24.57;58.35
3250;BME280;1637;42.020;23.992;2022-09-09T06:32:32;93168.22;;;24.12;58.61
3250;BME280;1637;42.020;23.992;2022-09-09T06:35:03;93162.91;;;25.16;56.35
3250;BME280;1637;42.020;23.992;2022-09-09T06:37:30;93159.81;;;25.28;55.65
3250;BME280;1637;42.020;23.992;2022-09-09T06:39:57;93166.56;;;26.01;55.17
3250;BME280;1637;42.020;23.992;2022-09-09T06:42:24;93154.63;;;25.05;57.62
3250;BME280;1637;42.020;23.992;2022-09-09T06:44:52;93137.69;;;25.38;57.11
3250;BME280;1637;42.020;23.992;2022-09-09T06:47:19;93156.94;;;26.23;54.53
3250;BME280;1637;42.020;23.992;2022-09-09T06:49:46;93159.81;;;25.28;57.32
3250;BME280;1637;42.020;23.992;2022-09-09T06:52:13;93158.13;;;26.59;53.88
3250;BME280;1637;42.020;23.992;2022-09-09T06:54:39;93159.69;;;26.17;54.47
3250;BME280;1637;42.020;23.992;2022-09-09T06:57:07;93156.13;;;26.65;54.37
3250;BME280;1637;42.020;23.992;2022-09-09T06:59:33;93154.66;;;26.69;53.49
3250;BME280;1637;42.020;23.992;2022-09-09T07:02:02;93140.13;;;26.52;54.06
3250;BME280;1637;42.020;23.992;2022-09-09T07:04:29;93143.13;;;26.06;56.14
3250;BME280;1637;42.020;23.992;2022-09-09T07:06:56;93146.75;;;27.05;54.37
3250;BME280;1637;42.020;23.992;2022-09-09T07:09:24;93147.75;;;27.13;53.36
3250;BME280;1637;42.020;23.992;2022-09-09T07:11:51;93150.50;;;27.24;52.89
3250;BME280;1637;42.020;23.992;2022-09-09T07:14:19;93156.78;;;27.75;51.14
3250;BME280;1637;42.020;23.992;2022-09-09T07:16:46;93153.53;;;27.49;51.76
3250;BME280;1637;42.020;23.992;2022-09-09T07:19:14;93155.03;;;27.16;52.88
3250;BME280;1637;42.020;23.992;2022-09-09T07:21:41;93165.41;;;28.46;48.64
3250;BME280;1637;42.020;23.992;2022-09-09T07:24:09;93157.53;;;27.81;50.37
3250;BME280;1637;42.020;23.992;2022-09-09T07:26:37;93160.94;;;28.32;49.04
3250;BME280;1637;42.020;23.992;2022-09-09T07:29:04;93152.44;;;28.30;49.24
3250;BME280;1637;42.020;23.992;2022-09-09T07:31:33;93148.16;;;28.34;50.49
3250;BME280;1637;42.020;23.992;2022-09-09T07:34:02;93143.53;;;27.57;52.44
3250;BME280;1637;42.020;23.992;2022-09-09T07:36:33;93149.84;;;28.49;49.15
3250;BME280;1637;42.020;23.992;2022-09-09T07:39:01;93147.72;;;28.25;50.60
3250;BME280;1637;42.020;23.992;2022-09-09T07:41:30;93136.00;;;29.12;49.48
3250;BME280;1637;42.020;23.992;2022-09-09T07:44:03;93144.84;;;29.40;47.79
3250;BME280;1637;42.020;23.992;2022-09-09T07:46:30;93122.94;;;29.13;48.25
3250;BME280;1637;42.020;23.992;2022-09-09T07:48:57;93122.28;;;29.36;48.82
3250;BME280;1637;42.020;23.992;2022-09-09T07:51:25;93129.66;;;28.18;51.12
3250;BME280;1637;42.020;23.992;2022-09-09T07:53:56;93139.16;;;29.63;47.82
3250;BME280;1637;42.020;23.992;2022-09-09T07:56:25;93136.06;;;29.36;47.84
3250;BME280;1637;42.020;23.992;2022-09-09T07:58:53;93143.44;;;29.88;46.92
3250;BME280;1637;42.020;23.992;2022-09-09T08:01:24;93128.59;;;30.16;46.54
3250;BME280;1637;42.020;23.992;2022-09-09T08:03:56;93118.22;;;29.73;48.95
3250;BME280;1637;42.020;23.992;2022-09-09T08:06:24;93122.50;;;29.98;46.71
3250;BME280;1637;42.020;23.992;2022-09-09T08:08:54;93122.75;;;30.25;46.17
3250;BME280;1637;42.020;23.992;2022-09-09T08:11:22;93115.25;;;29.05;47.24
3250;BME280;1637;42.020;23.992;2022-09-09T08:13:50;93120.22;;;29.48;46.14
3250;BME280;1637;42.020;23.992;2022-09-09T08:16:19;93110.47;;;29.71;46.75
3250;BME280;1637;42.020;23.992;2022-09-09T08:18:48;93116.78;;;30.39;44.74
3250;BME280;1637;42.020;23.992;2022-09-09T08:21:18;93106.50;;;30.16;45.33
3250;BME280;1637;42.020;23.992;2022-09-09T08:23:45;93118.00;;;29.95;46.90
3250;BME280;1637;42.020;23.992;2022-09-09T08:26:15;93108.22;;;29.70;47.05
3250;BME280;1637;42.020;23.992;2022-09-09T08:28:43;93105.00;;;29.90;45.64
3250;BME280;1637;42.020;23.992;2022-09-09T08:31:12;93096.47;;;29.64;46.83
3250;BME280;1637;42.020;23.992;2022-09-09T08:33:39;93091.31;;;30.03;46.84
3250;BME280;1637;42.020;23.992;2022-09-09T08:36:08;93084.66;;;30.36;46.32
3250;BME280;1637;42.020;23.992;2022-09-09T08:38:35;93089.00;;;29.59;46.58
3250;BME280;1637;42.020;23.992;2022-09-09T08:41:27;93086.59;;;29.98;46.97
3250;BME280;1637;42.020;23.992;2022-09-09T08:44:02;93092.78;;;29.56;48.32
3250;BME280;1637;42.020;23.992;2022-09-09T08:46:37;93092.53;;;30.08;46.16
3250;BME280;1637;42.020;23.992;2022-09-09T08:49:17;93089.84;;;30.64;45.75
3250;BME280;1637;42.020;23.992;2022-09-09T08:51:48;93079.59;;;30.59;45.43
3250;BME280;1637;42.020;23.992;2022-09-09T08:54:15;93091.56;;;30.67;45.35
3250;BME280;1637;42.020;23.992;2022-09-09T08:56:46;93082.56;;;29.75;47.88
3250;BME280;1637;42.020;23.992;2022-09-09T08:59:17;93081.25;;;30.68;46.92
3250;BME280;1637;42.020;23.992;2022-09-09T09:01:51;93082.72;;;31.06;46.38
3250;BME280;1637;42.020;23.992;2022-09-09T09:04:38;93061.25;;;29.94;47.79
3250;BME280;1637;42.020;23.992;2022-09-09T09:07:16;93073.78;;;30.63;46.51
3250;BME280;1637;42.020;23.992;2022-09-09T09:09:53;93061.88;;;30.49;47.94
3250;BME280;1637;42.020;23.992;2022-09-09T09:12:27;93063.19;;;30.67;46.76
3250;BME280;1637;42.020;23.992;2022-09-09T09:14:55;93051.81;;;30.33;47.09
3250;BME280;1637;42.020;23.992;2022-09-09T09:17:27;93042.59;;;30.25;47.94
3250;BME280;1637;42.020;23.992;2022-09-09T09:19:57;93037.91;;;30.76;46.91
3250;BME280;1637;42.020;23.992;2022-09-09T09:22:31;93038.44;;;30.74;47.22
3250;BME280;1637;42.020;23.992;2022-09-09T09:25:02;93044.59;;;30.05;49.32
3250;BME280;1637;42.020;23.992;2022-09-09T09:27:41;93047.63;;;30.64;49.05
3250;BME280;1637;42.020;23.992;2022-09-09T09:30:15;93036.28;;;30.99;47.61
3250;BME280;1637;42.020;23.992;2022-09-09T09:32:50;93039.50;;;30.71;48.02
3250;BME280;1637;42.020;23.992;2022-09-09T09:35:18;93031.94;;;31.04;47.35
3250;BME280;1637;42.020;23.992;2022-09-09T09:37:45;93032.09;;;30.61;47.00
3250;BME280;1637;42.020;23.992;2022-09-09T09:40:13;93033.22;;;30.71;47.77
3250;BME280;1637;42.020;23.992;2022-09-09T09:42:49;93049.50;;;30.56;46.05
3250;BME280;1637;42.020;23.992;2022-09-09T09:45:26;93024.84;;;30.58;46.43
3250;BME280;1637;42.020;23.992;2022-09-09T09:47:59;93017.06;;;30.56;47.35
3250;BME280;1637;42.020;23.992;2022-09-09T09:50:27;93009.66;;;30.08;49.47
3250;BME280;1637;42.020;23.992;2022-09-09T09:52:56;93013.94;;;30.65;49.20
3250;BME280;1637;42.020;23.992;2022-09-09T09:55:24;93016.72;;;31.42;46.07
3250;BME280;1637;42.020;23.992;2022-09-09T09:57:54;93015.34;;;31.04;45.79
3250;BME280;1637;42.020;23.992;2022-09-09T10:00:26;93021.56;;;31.55;44.85
3250;BME280;1637;42.020;23.992;2022-09-09T10:02:53;93007.19;;;30.42;48.40
3250;BME280;1637;42.020;23.992;2022-09-09T10:05:23;92991.75;;;29.47;51.22
3250;BME280;1637;42.020;23.992;2022-09-09T10:08:04;93010.41;;;30.08;49.08
3250;BME280;1637;42.020;23.992;2022-09-09T10:10:42;93018.00;;;30.02;49.84
3250;BME280;1637;42.020;23.992;2022-09-09T10:13:17;93004.13;;;30.27;50.01
3250;BME280;1637;42.020;23.992;2022-09-09T10:15:55;93005.84;;;29.68;50.85
3250;BME280;1637;42.020;23.992;2022-09-09T10:18:47;93011.16;;;30.65;49.20
3250;BME280;1637;42.020;23.992;2022-09-09T10:21:31;93010.56;;;30.54;49.19
3250;BME280;1637;42.020;23.992;2022-09-09T10:24:11;93004.56;;;29.69;50.29
3250;BME280;1637;42.020;23.992;2022-09-09T10:26:46;93004.13;;;29.35;50.77
3250;BME280;1637;42.020;23.992;2022-09-09T10:29:26;93004.06;;;29.46;50.56
3250;BME280;1637;42.020;23.992;2022-09-09T10:32:09;93011.59;;;28.86;50.75
3250;BME280;1637;42.020;23.992;2022-09-09T10:34:53;93001.75;;;28.90;50.98
3250;BME280;1637;42.020;23.992;2022-09-09T10:37:33;93008.88;;;28.80;50.75
3250;BME280;1637;42.020;23.992;2022-09-09T10:40:19;93002.34;;;28.42;51.39
3250;BME280;1637;42.020;23.992;2022-09-09T10:42:49;93001.53;;;28.53;51.17
3250;BME280;1637;42.020;23.992;2022-09-09T10:45:21;93010.94;;;29.04;49.91
3250;BME280;1637;42.020;23.992;2022-09-09T10:48:14;93006.19;;;29.04;50.05
3250;BME280;1637;42.020;23.992;2022-09-09T10:50:52;92999.84;;;28.80;50.50
3250;BME280;1637;42.020;23.992;2022-09-09T10:53:30;93010.63;;;28.42;50.59
3250;BME280;1637;42.020;23.992;2022-09-09T10:56:03;93010.88;;;28.44;51.37
3250;BME280;1637;42.020;23.992;2022-09-09T10:58:36;93007.47;;;28.16;51.05
3250;BME280;1637;42.020;23.992;2022-09-09T11:01:12;93004.81;;;27.93;51.28
3250;BME280;1637;42.020;23.992;2022-09-09T11:03:42;93010.81;;;27.97;52.55
3250;BME280;1637;42.020;23.992;2022-09-09T11:06:13;93009.56;;;28.04;51.97
3250;BME280;1637;42.020;23.992;2022-09-09T11:08:42;93004.31;;;27.95;52.75
3250;BME280;1637;42.020;23.992;2022-09-09T11:11:12;93004.03;;;28.04;52.14
3250;BME280;1637;42.020;23.992;2022-09-09T11:13:45;93000.34;;;27.90;52.98
3250;BME280;1637;42.020;23.992;2022-09-09T11:16:23;93005.50;;;28.11;52.60
3250;BME280;1637;42.020;23.992;2022-09-09T11:18:56;93001.56;;;28.47;51.81
3250;BME280;1637;42.020;23.992;2022-09-09T11:21:29;93005.41;;;29.34;50.07
3250;BME280;1637;42.020;23.992;2022-09-09T11:24:00;93002.34;;;29.37;49.10
3250;BME280;1637;42.020;23.992;2022-09-09T11:26:32;92998.72;;;29.24;50.47
3250;BME280;1637;42.020;23.992;2022-09-09T11:32:14;92992.31;;;27.92;51.30
3250;BME280;1637;42.020;23.992;2022-09-09T11:34:51;92985.19;;;27.61;52.89
3250;BME280;1637;42.020;23.992;2022-09-09T11:37:42;92987.22;;;27.38;53.51
3250;BME280;1637;42.020;23.992;2022-09-09T11:40:18;92993.50;;;27.28;53.74
3250;BME280;1637;42.020;23.992;2022-09-09T11:42:46;92993.22;;;27.43;53.03
3250;BME280;1637;42.020;23.992;2022-09-09T11:45:24;92991.69;;;27.47;53.10
3250;BME280;1637;42.020;23.992;2022-09-09T11:47:55;92991.72;;;28.11;51.30
3250;BME280;1637;42.020;23.992;2022-09-09T11:50:38;92992.47;;;28.11;51.21
3250;BME280;1637;42.020;23.992;2022-09-09T11:53:22;92992.34;;;28.80;49.63
3250;BME280;1637;42.020;23.992;2022-09-09T11:56:01;92994.72;;;28.59;49.54
3250;BME280;1637;42.020;23.992;2022-09-09T11:58:38;93000.72;;;28.63;49.76
3250;BME280;1637;42.020;23.992;2022-09-09T12:04:21;92969.91;;;28.18;51.17
3250;BME280;1637;42.020;23.992;2022-09-09T12:06:56;92991.03;;;28.87;50.03
3250;BME280;1637;42.020;23.992;2022-09-09T12:09:41;92980.19;;;28.23;50.59
3250;BME280;1637;42.020;23.992;2022-09-09T12:12:25;92989.56;;;28.45;50.07
3250;BME280;1637;42.020;23.992;2022-09-09T12:15:02;92976.56;;;27.87;51.03
3250;BME280;1637;42.020;23.992;2022-09-09T12:17:31;92995.16;;;27.70;52.12
3250;BME280;1637;42.020;23.992;2022-09-09T12:20:12;92989.00;;;27.30;51.75
3250;BME280;1637;42.020;23.992;2022-09-09T12:22:55;92991.78;;;27.08;52.99
3250;BME280;1637;42.020;23.992;2022-09-09T12:25:30;92993.03;;;27.18;52.57
3250;BME280;1637;42.020;23.992;2022-09-09T12:28:08;92994.50;;;27.30;52.08
3250;BME280;1637;42.020;23.992;2022-09-09T12:30:43;92985.28;;;27.11;53.39
3250;BME280;1637;42.020;23.992;2022-09-09T12:33:16;92987.75;;;27.26;52.72
3250;BME280;1637;42.020;23.992;2022-09-09T12:35:49;92982.56;;;26.94;52.95
3250;BME280;1637;42.020;23.992;2022-09-09T12:38:22;92980.53;;;26.73;53.40
3250;BME280;1637;42.020;23.992;2022-09-09T12:40:56;92981.72;;;26.27;54.83
3250;BME280;1637;42.020;23.992;2022-09-09T12:43:25;92985.28;;;26.55;54.25
3250;BME280;1637;42.020;23.992;2022-09-09T12:45:54;92986.78;;;26.51;54.10
3250;BME280;1637;42.020;23.992;2022-09-09T12:48:28;92987.28;;;26.72;53.26
3250;BME280;1637;42.020;23.992;2022-09-09T12:50:59;92979.28;;;26.62;54.76
3250;BME280;1637;42.020;23.992;2022-09-09T12:53:30;92977.28;;;26.80;54.54
3250;BME280;1637;42.020;23.992;2022-09-09T12:56:01;92980.78;;;26.69;54.62
3250;BME280;1637;42.020;23.992;2022-09-09T12:58:29;92983.31;;;26.95;53.40
3250;BME280;1637;42.020;23.992;2022-09-09T13:01:00;92978.28;;;26.93;53.88
3250;BME280;1637;42.020;23.992;2022-09-09T13:03:31;92979.78;;;26.78;54.83
3250;BME280;1637;42.020;23.992;2022-09-09T13:06:11;92971.53;;;26.66;55.18
3250;BME280;1637;42.020;23.992;2022-09-09T13:08:39;92971.28;;;26.53;55.68
3250;BME280;1637;42.020;23.992;2022-09-09T13:11:10;92970.28;;;26.45;54.94
3250;BME280;1637;42.020;23.992;2022-09-09T13:13:40;92970.03;;;26.49;54.77
3250;BME280;1637;42.020;23.992;2022-09-09T13:16:19;92962.88;;;25.81;57.47
3250;BME280;1637;42.020;23.992;2022-09-09T13:18:47;92961.63;;;25.82;57.33
3250;BME280;1637;42.020;23.992;2022-09-09T13:21:16;92964.47;;;26.10;57.63
3250;BME280;1637;42.020;23.992;2022-09-09T13:23:48;92960.97;;;26.15;57.42
3250;BME280;1637;42.020;23.992;2022-09-09T13:26:22;92964.47;;;26.15;55.97
3250;BME280;1637;42.020;23.992;2022-09-09T13:28:50;92957.19;;;26.01;56.00
3250;BME280;1637;42.020;23.992;2022-09-09T13:31:24;92962.00;;;26.28;56.86
3250;BME280;1637;42.020;23.992;2022-09-09T13:33:53;92964.28;;;26.30;58.00